Time;durP1;ratioP1;P1;durP2;ratioP2;P2;SDS_P1;SDS_P2;PMS_P1;PMS_P2;Temp;Humidity;BMP_temperature;BMP_pressure;BME280_temperature;BME280_humidity;BME280_pressure;Samples;Min_cycle;Max_cycle;Signal;HPM_P1;HPM_P2
2023/09/07 00:00:11;;;;;;;0.50;0.50;;;;;;;;;;5024230;28;20049;-59
2023/09/07 00:02:38;;;;;;;0.65;0.65;;;;;;;;;;5023074;28;20049;-59
2023/09/07 00:05:06;;;;;;;0.60;0.60;;;;;;;;;;5024758;28;20505;-59
2023/09/07 00:07:32;;;;;;;0.63;0.63;;;;;;;;;;5023751;28;20049;-59
2023/09/07 00:09:58;;;;;;;0.80;0.80;;;;;;;;;;5020852;28;20046;-60
2023/09/07 00:12:24;;;;;;;0.57;0.57;;;;;;;;;;5023835;28;20049;-59
2023/09/07 00:14:50;;;;;;;0.60;0.60;;;;;;;;;;5025252;28;20049;-59
2023/09/07 00:17:16;;;;;;;0.77;0.68;;;;;;;;;;5021844;28;20049;-59
2023/09/07 00:19:42;;;;;;;2.75;0.82;;;;;;;;;;5024281;28;20037;-59
2023/09/07 00:22:09;;;;;;;1.50;0.70;;;;;;;;;;5023201;28;20053;-59
2023/09/07 00:24:35;;;;;;;0.60;0.60;;;;;;;;;;5023291;28;20108;-59
2023/09/07 00:27:05;;;;;;;0.80;0.80;;;;;;;;;;5024368;28;20041;-59
2023/09/07 00:29:31;;;;;;;0.55;0.55;;;;;;;;;;5018602;28;20512;-59
2023/09/07 00:31:57;;;;;;;0.93;0.57;;;;;;;;;;5023149;28;20146;-59
2023/09/07 00:34:23;;;;;;;2.22;0.70;;;;;;;;;;5024373;28;20076;-59
2023/09/07 00:36:49;;;;;;;0.45;0.45;;;;;;;;;;5023791;28;20195;-59
2023/09/07 00:39:15;;;;;;;0.88;0.88;;;;;;;;;;5024090;28;20257;-58
2023/09/07 00:41:41;;;;;;;0.70;0.70;;;;;;;;;;5024061;28;20086;-59
2023/09/07 00:44:07;;;;;;;0.60;0.60;;;;;;;;;;5021734;28;20033;-59
2023/09/07 00:46:33;;;;;;;0.40;0.40;;;;;;;;;;5027259;28;20042;-60
2023/09/07 00:49:00;;;;;;;0.40;0.40;;;;;;;;;;5027011;28;20054;-59
2023/09/07 00:51:26;;;;;;;0.70;0.70;;;;;;;;;;5026004;28;20053;-59
2023/09/07 00:53:53;;;;;;;0.60;0.60;;;;;;;;;;5026678;28;20496;-59
2023/09/07 00:56:19;;;;;;;0.70;0.70;;;;;;;;;;5026648;28;20037;-59
2023/09/07 00:58:45;;;;;;;0.50;0.50;;;;;;;;;;5027013;28;20311;-59
2023/09/07 01:01:11;;;;;;;0.68;0.68;;;;;;;;;;5027111;28;20640;-59
2023/09/07 01:03:37;;;;;;;0.60;0.60;;;;;;;;;;5028089;28;20045;-59
2023/09/07 01:06:23;;;;;;;1.05;0.60;;;;;;;;;;5026859;28;20050;-59
2023/09/07 01:08:58;;;;;;;0.52;0.52;;;;;;;;;;5026166;28;20056;-58
2023/09/07 01:11:25;;;;;;;0.82;0.68;;;;;;;;;;5027283;28;20398;-59
2023/09/07 01:13:53;;;;;;;0.50;0.50;;;;;;;;;;5026769;28;20045;-59
2023/09/07 01:16:20;;;;;;;0.63;0.63;;;;;;;;;;5026905;28;20111;-60
2023/09/07 01:18:47;;;;;;;0.75;0.60;;;;;;;;;;5027470;28;20041;-59
2023/09/07 01:21:13;;;;;;;0.50;0.50;;;;;;;;;;5025400;28;20045;-59
2023/09/07 01:23:42;;;;;;;0.60;0.60;;;;;;;;;;5026525;28;20080;-59
2023/09/07 01:26:09;;;;;;;0.70;0.70;;;;;;;;;;5022989;28;20045;-59
2023/09/07 01:28:37;;;;;;;0.85;0.85;;;;;;;;;;5026270;28;20489;-59
2023/09/07 01:31:03;;;;;;;0.68;0.68;;;;;;;;;;5026939;28;20077;-59
2023/09/07 01:33:29;;;;;;;0.57;0.57;;;;;;;;;;5019710;28;20486;-59
2023/09/07 01:35:55;;;;;;;0.88;0.85;;;;;;;;;;5027154;28;20029;-59
2023/09/07 01:38:21;;;;;;;0.57;0.57;;;;;;;;;;5026443;28;20076;-59
2023/09/07 01:40:47;;;;;;;0.60;0.60;;;;;;;;;;5026407;28;20041;-59
2023/09/07 01:43:13;;;;;;;0.70;0.70;;;;;;;;;;5026531;28;20080;-59
2023/09/07 01:45:39;;;;;;;0.60;0.55;;;;;;;;;;5025712;28;20041;-59
2023/09/07 01:48:10;;;;;;;0.47;0.47;;;;;;;;;;5023554;28;20053;-59
2023/09/07 01:50:36;;;;;;;0.85;0.77;;;;;;;;;;5025201;28;20046;-59
2023/09/07 01:53:04;;;;;;;0.70;0.70;;;;;;;;;;5026690;28;20106;-59
2023/09/07 01:55:30;;;;;;;0.40;0.40;;;;;;;;;;5024721;28;20077;-59
2023/09/07 01:57:56;;;;;;;0.70;0.70;;;;;;;;;;5025645;28;20053;-59
2023/09/07 02:00:22;;;;;;;0.55;0.50;;;;;;;;;;5025310;28;20037;-59
2023/09/07 02:02:48;;;;;;;0.70;0.70;;;;;;;;;;5024863;28;20034;-59
2023/09/07 02:05:14;;;;;;;0.90;0.90;;;;;;;;;;5025378;28;20045;-59
2023/09/07 02:07:40;;;;;;;0.68;0.68;;;;;;;;;;5026194;28;20092;-60
2023/09/07 02:10:06;;;;;;;0.60;0.60;;;;;;;;;;5025838;28;20451;-59
2023/09/07 02:12:32;;;;;;;0.80;0.80;;;;;;;;;;5026051;28;20504;-59
2023/09/07 02:15:00;;;;;;;0.55;0.52;;;;;;;;;;5021469;28;20136;-59
2023/09/07 02:17:26;;;;;;;0.77;0.73;;;;;;;;;;5024987;28;20045;-59
2023/09/07 02:19:52;;;;;;;0.88;0.80;;;;;;;;;;5026614;28;20056;-58
2023/09/07 02:22:18;;;;;;;0.93;0.70;;;;;;;;;;5024911;28;20041;-59
2023/09/07 02:24:44;;;;;;;0.65;0.65;;;;;;;;;;5026031;28;20548;-59
2023/09/07 02:27:10;;;;;;;0.70;0.70;;;;;;;;;;5025914;28;20045;-58
2023/09/07 02:29:36;;;;;;;0.55;0.55;;;;;;;;;;5024893;28;20045;-59
2023/09/07 02:32:03;;;;;;;0.70;0.70;;;;;;;;;;5025984;28;20037;-59
2023/09/07 02:34:29;;;;;;;0.80;0.80;;;;;;;;;;5024049;28;20042;-59
2023/09/07 02:36:56;;;;;;;1.98;0.73;;;;;;;;;;5025458;28;20033;-59
2023/09/07 02:39:26;;;;;;;1.05;0.95;;;;;;;;;;5023476;28;20645;-59
2023/09/07 02:41:52;;;;;;;0.70;0.70;;;;;;;;;;5026243;28;20049;-59
2023/09/07 02:44:18;;;;;;;2.10;0.68;;;;;;;;;;5024914;28;20045;-59
2023/09/07 02:46:44;;;;;;;0.75;0.70;;;;;;;;;;5025372;28;20068;-59
2023/09/07 02:49:10;;;;;;;0.60;0.60;;;;;;;;;;5025683;28;20045;-59
2023/09/07 02:51:36;;;;;;;0.90;0.90;;;;;;;;;;5024442;28;20131;-59
2023/09/07 02:54:03;;;;;;;0.90;0.73;;;;;;;;;;5024671;28;20124;-59
2023/09/07 02:56:29;;;;;;;0.98;0.88;;;;;;;;;;5024280;28;20489;-59
2023/09/07 02:58:56;;;;;;;0.80;0.80;;;;;;;;;;5025125;28;20823;-59
2023/09/07 03:01:22;;;;;;;1.00;0.73;;;;;;;;;;5025501;28;20045;-59
2023/09/07 03:03:48;;;;;;;0.68;0.57;;;;;;;;;;5024650;28;20041;-59
2023/09/07 03:06:18;;;;;;;0.80;0.80;;;;;;;;;;5023797;28;20051;-59
2023/09/07 03:08:44;;;;;;;0.80;0.80;;;;;;;;;;5024976;28;20048;-59
2023/09/07 03:11:11;;;;;;;1.20;1.10;;;;;;;;;;5025122;28;20055;-59
2023/09/07 03:13:37;;;;;;;1.30;1.20;;;;;;;;;;5023838;28;20056;-59
2023/09/07 03:16:04;;;;;;;1.00;1.00;;;;;;;;;;5025433;28;20048;-59
2023/09/07 03:18:30;;;;;;;0.75;0.75;;;;;;;;;;5024551;28;20050;-59
2023/09/07 03:20:56;;;;;;;1.10;0.82;;;;;;;;;;5022182;28;20059;-59
2023/09/07 03:23:23;;;;;;;0.80;0.80;;;;;;;;;;5021263;28;20064;-59
2023/09/07 03:25:49;;;;;;;0.70;0.70;;;;;;;;;;5022018;28;20083;-58
2023/09/07 03:28:15;;;;;;;0.90;0.90;;;;;;;;;;5021171;28;20493;-59
2023/09/07 03:30:41;;;;;;;0.95;0.90;;;;;;;;;;5024130;28;20041;-59
2023/09/07 03:33:07;;;;;;;0.90;0.90;;;;;;;;;;5022681;28;20575;-59
2023/09/07 03:35:33;;;;;;;0.93;0.93;;;;;;;;;;5023585;28;20042;-59
2023/09/07 03:37:59;;;;;;;1.00;0.90;;;;;;;;;;5025041;28;20034;-59
2023/09/07 03:40:26;;;;;;;0.73;0.73;;;;;;;;;;5024253;28;20037;-59
2023/09/07 03:42:52;;;;;;;1.10;0.98;;;;;;;;;;5023065;28;20049;-60
2023/09/07 03:45:18;;;;;;;0.85;0.85;;;;;;;;;;5024001;28;20048;-59
2023/09/07 03:47:44;;;;;;;0.80;0.80;;;;;;;;;;5023636;28;20865;-59
2023/09/07 03:50:10;;;;;;;1.45;1.17;;;;;;;;;;5024516;28;20509;-59
2023/09/07 03:52:36;;;;;;;0.88;0.88;;;;;;;;;;5024284;28;20116;-59
2023/09/07 03:55:03;;;;;;;1.30;0.90;;;;;;;;;;5023256;28;20033;-59
2023/09/07 03:57:29;;;;;;;0.90;0.90;;;;;;;;;;5023642;28;20041;-59
2023/09/07 03:59:56;;;;;;;1.00;0.90;;;;;;;;;;5022114;28;20419;-59
2023/09/07 04:02:22;;;;;;;0.90;0.90;;;;;;;;;;5023452;28;20125;-59
2023/09/07 04:04:52;;;;;;;0.80;0.80;;;;;;;;;;5021671;28;20045;-59
2023/09/07 04:07:18;;;;;;;0.93;0.93;;;;;;;;;;5022827;28;20049;-59
2023/09/07 04:09:45;;;;;;;1.15;0.82;;;;;;;;;;5022923;28;20041;-59
2023/09/07 04:12:11;;;;;;;0.82;0.82;;;;;;;;;;5023828;28;20038;-59
2023/09/07 04:14:38;;;;;;;1.25;1.15;;;;;;;;;;5022373;28;20619;-59
2023/09/07 04:17:04;;;;;;;0.95;0.88;;;;;;;;;;5023700;28;20076;-58
2023/09/07 04:19:30;;;;;;;1.55;0.98;;;;;;;;;;5026897;28;20056;-59
2023/09/07 04:21:57;;;;;;;0.75;0.75;;;;;;;;;;5028329;28;20041;-59
2023/09/07 04:24:23;;;;;;;0.55;0.55;;;;;;;;;;5028678;28;20128;-59
2023/09/07 04:26:49;;;;;;;0.85;0.85;;;;;;;;;;5027512;28;20451;-59
2023/09/07 04:29:16;;;;;;;0.85;0.85;;;;;;;;;;5027284;28;20049;-59
2023/09/07 04:31:42;;;;;;;0.88;0.88;;;;;;;;;;5027877;28;20477;-59
2023/09/07 04:34:09;;;;;;;1.30;1.20;;;;;;;;;;5024488;28;20688;-59
2023/09/07 04:36:35;;;;;;;0.68;0.68;;;;;;;;;;5019524;28;20045;-59
2023/09/07 04:39:03;;;;;;;1.10;1.10;;;;;;;;;;5022057;28;20045;-59
2023/09/07 04:41:29;;;;;;;1.10;1.00;;;;;;;;;;5026090;28;20497;-59
2023/09/07 04:43:57;;;;;;;1.30;1.20;;;;;;;;;;5026932;28;20094;-59
2023/09/07 04:46:23;;;;;;;1.30;1.20;;;;;;;;;;5026397;28;20128;-59
2023/09/07 04:48:49;;;;;;;1.17;1.08;;;;;;;;;;5027515;28;20408;-59
2023/09/07 04:51:16;;;;;;;0.90;0.90;;;;;;;;;;5026065;28;20136;-59
2023/09/07 04:53:42;;;;;;;1.00;1.00;;;;;;;;;;5026980;28;20520;-59
2023/09/07 04:56:08;;;;;;;1.65;1.05;;;;;;;;;;5026734;28;20529;-59
2023/09/07 04:58:35;;;;;;;1.02;1.00;;;;;;;;;;5025794;28;20111;-59
2023/09/07 05:01:08;;;;;;;0.95;0.95;;;;;;;;;;5026964;28;20038;-59
2023/09/07 05:03:34;;;;;;;1.13;1.13;;;;;;;;;;5025839;28;20117;-59
2023/09/07 05:06:02;;;;;;;0.80;0.80;;;;;;;;;;5025512;28;20040;-59
2023/09/07 05:08:29;;;;;;;1.15;1.13;;;;;;;;;;5026308;28;20050;-59
2023/09/07 05:10:59;;;;;;;1.35;1.20;;;;;;;;;;5027354;28;20432;-59
2023/09/07 05:13:25;;;;;;;1.30;1.20;;;;;;;;;;5025850;28;20600;-59
2023/09/07 05:15:52;;;;;;;1.10;1.00;;;;;;;;;;5026828;28;20481;-59
2023/09/07 05:18:18;;;;;;;0.98;0.88;;;;;;;;;;5025697;28;20665;-59
2023/09/07 05:20:44;;;;;;;1.15;1.05;;;;;;;;;;5026898;28;20540;-59
2023/09/07 05:23:12;;;;;;;1.67;1.20;;;;;;;;;;5026476;28;20045;-59
2023/09/07 05:25:47;;;;;;;0.82;0.82;;;;;;;;;;5025515;28;20104;-59
2023/09/07 05:28:14;;;;;;;1.10;1.00;;;;;;;;;;5026197;28;20041;-59
2023/09/07 05:30:41;;;;;;;1.00;1.00;;;;;;;;;;5024775;28;20061;-59
2023/09/07 05:33:08;;;;;;;1.27;1.10;;;;;;;;;;5019905;28;20044;-59
2023/09/07 05:35:34;;;;;;;1.05;1.00;;;;;;;;;;5025674;28;20052;-59
2023/09/07 05:38:00;;;;;;;1.00;1.00;;;;;;;;;;5026501;28;20579;-59
2023/09/07 05:40:26;;;;;;;1.20;1.10;;;;;;;;;;5025456;28;20049;-58
2023/09/07 05:42:52;;;;;;;1.30;1.20;;;;;;;;;;5026495;28;20137;-59
2023/09/07 05:45:18;;;;;;;1.00;1.00;;;;;;;;;;5021276;28;20121;-59
2023/09/07 05:47:44;;;;;;;1.30;1.20;;;;;;;;;;5025678;28;20662;-59
2023/09/07 05:50:10;;;;;;;0.90;0.90;;;;;;;;;;5026638;28;20050;-59
2023/09/07 05:52:36;;;;;;;0.88;0.88;;;;;;;;;;5025512;28;20042;-59
2023/09/07 05:55:02;;;;;;;2.45;0.90;;;;;;;;;;5026461;28;20099;-59
2023/09/07 05:57:28;;;;;;;0.70;0.70;;;;;;;;;;5027307;28;20103;-59
2023/09/07 05:59:54;;;;;;;0.88;0.88;;;;;;;;;;5027386;28;20033;-59
2023/09/07 06:02:20;;;;;;;2.13;0.90;;;;;;;;;;5025735;28;20397;-59
2023/09/07 06:04:46;;;;;;;0.65;0.65;;;;;;;;;;5026487;28;20045;-59
2023/09/07 06:07:12;;;;;;;0.60;0.60;;;;;;;;;;5026262;28;20132;-59
2023/09/07 06:09:38;;;;;;;0.75;0.68;;;;;;;;;;5025840;28;20137;-59
2023/09/07 06:12:04;;;;;;;0.63;0.63;;;;;;;;;;5026506;28;20033;-59
2023/09/07 06:14:30;;;;;;;0.52;0.52;;;;;;;;;;5025367;28;20041;-59
2023/09/07 06:16:56;;;;;;;0.80;0.80;;;;;;;;;;5026391;28;20104;-59
2023/09/07 06:19:22;;;;;;;0.70;0.70;;;;;;;;;;5025814;28;20077;-59
2023/09/07 06:21:48;;;;;;;0.57;0.57;;;;;;;;;;5025475;28;20036;-59
2023/09/07 06:24:14;;;;;;;0.75;0.75;;;;;;;;;;5025809;28;20069;-59
2023/09/07 06:26:40;;;;;;;0.75;0.75;;;;;;;;;;5026106;28;20907;-59
2023/09/07 06:29:06;;;;;;;0.60;0.60;;;;;;;;;;5025470;28;20045;-59
2023/09/07 06:31:32;;;;;;;0.50;0.50;;;;;;;;;;5024248;28;20048;-59
2023/09/07 06:33:58;;;;;;;0.50;0.50;;;;;;;;;;5025962;28;20657;-59
2023/09/07 06:36:24;;;;;;;0.50;0.50;;;;;;;;;;5022806;28;20076;-59
2023/09/07 06:38:50;;;;;;;0.60;0.60;;;;;;;;;;5025629;28;20041;-59
2023/09/07 06:41:16;;;;;;;0.80;0.80;;;;;;;;;;5024583;28;20056;-58
2023/09/07 06:43:42;;;;;;;0.50;0.50;;;;;;;;;;5024596;28;20420;-59
2023/09/07 06:46:09;;;;;;;0.52;0.50;;;;;;;;;;5017363;28;20057;-59
2023/09/07 06:48:35;;;;;;;0.70;0.70;;;;;;;;;;5023489;28;20409;-59
2023/09/07 06:51:03;;;;;;;0.55;0.45;;;;;;;;;;5025438;28;20049;-59
2023/09/07 06:53:29;;;;;;;0.45;0.43;;;;;;;;;;5026592;28;20060;-59
2023/09/07 06:55:59;;;;;;;0.40;0.40;;;;;;;;;;5027083;28;20486;-59
2023/09/07 06:58:25;;;;;;;0.43;0.43;;;;;;;;;;5024993;28;20540;-59
2023/09/07 07:00:51;;;;;;;0.70;0.50;;;;;;;;;;5020780;28;20045;-59
2023/09/07 07:03:17;;;;;;;0.40;0.40;;;;;;;;;;5023163;28;20045;-60
2023/09/07 07:05:43;;;;;;;0.70;0.70;;;;;;;;;;5023704;28;20045;-59
2023/09/07 07:08:10;;;;;;;1.10;1.00;;;;;;;;;;5025396;28;20084;-59
2023/09/07 07:10:36;;;;;;;0.88;0.88;;;;;;;;;;5024943;28;20765;-59
2023/09/07 07:13:02;;;;;;;1.20;0.85;;;;;;;;;;5025097;28;20042;-59
2023/09/07 07:15:28;;;;;;;0.70;0.70;;;;;;;;;;5025895;28;20045;-60
2023/09/07 07:17:54;;;;;;;0.65;0.65;;;;;;;;;;5017877;28;20580;-59
2023/09/07 07:20:20;;;;;;;0.85;0.85;;;;;;;;;;5024253;28;20053;-57
2023/09/07 07:22:46;;;;;;;0.88;0.88;;;;;;;;;;5026030;28;20071;-57
2023/09/07 07:25:12;;;;;;;0.75;0.75;;;;;;;;;;5025134;28;20045;-59
2023/09/07 07:27:39;;;;;;;1.10;1.00;;;;;;;;;;5025452;28;20056;-61
2023/09/07 07:30:05;;;;;;;1.10;1.00;;;;;;;;;;5024759;28;20056;-60
2023/09/07 07:32:31;;;;;;;1.30;1.20;;;;;;;;;;5025523;28;20041;-60
2023/09/07 07:34:58;;;;;;;1.48;1.38;;;;;;;;;;5026083;28;20033;-59
2023/09/07 07:37:24;;;;;;;1.70;1.60;;;;;;;;;;5024699;28;20045;-59
2023/09/07 07:39:50;;;;;;;2.30;2.10;;;;;;;;;;5024298;28;20029;-59
2023/09/07 07:42:18;;;;;;;2.40;2.20;;;;;;;;;;5023952;28;20052;-59
2023/09/07 07:44:44;;;;;;;1.95;1.85;;;;;;;;;;5022509;28;20581;-59
2023/09/07 07:47:10;;;;;;;1.67;1.58;;;;;;;;;;5020646;28;20133;-58
2023/09/07 07:49:36;;;;;;;1.73;1.63;;;;;;;;;;5024498;28;20057;-59
2023/09/07 07:52:02;;;;;;;1.40;1.30;;;;;;;;;;5024612;28;20059;-59
2023/09/07 07:54:29;;;;;;;1.83;1.67;;;;;;;;;;5026517;28;20461;-59
2023/09/07 07:56:55;;;;;;;2.13;1.70;;;;;;;;;;5027895;28;20045;-60
2023/09/07 07:59:21;;;;;;;2.67;1.63;;;;;;;;;;5028384;28;20069;-60
2023/09/07 08:01:47;;;;;;;2.53;2.25;;;;;;;;;;5026922;28;20080;-59
2023/09/07 08:04:13;;;;;;;2.30;2.10;;;;;;;;;;5028307;28;20107;-60
2023/09/07 08:06:39;;;;;;;1.80;1.70;;;;;;;;;;5025296;28;20041;-60
2023/09/07 08:09:05;;;;;;;2.50;2.30;;;;;;;;;;5024317;28;20674;-60
2023/09/07 08:11:31;;;;;;;3.15;2.88;;;;;;;;;;5028310;28;20645;-59
2023/09/07 08:13:57;;;;;;;2.65;2.45;;;;;;;;;;5028471;28;20037;-60
2023/09/07 08:16:23;;;;;;;2.40;1.80;;;;;;;;;;5028450;28;20048;-60
2023/09/07 08:18:49;;;;;;;2.05;1.85;;;;;;;;;;5028303;28;20110;-59
2023/09/07 08:21:15;;;;;;;1.67;1.58;;;;;;;;;;5027897;28;20798;-60
2023/09/07 08:23:41;;;;;;;1.50;1.40;;;;;;;;;;5022333;28;20453;-59
2023/09/07 08:26:09;;;;;;;1.48;1.38;;;;;;;;;;5027347;28;20065;-59
2023/09/07 08:28:35;;;;;;;1.85;1.75;;;;;;;;;;5027171;28;20048;-59
2023/09/07 08:31:04;;;;;;;1.52;1.42;;;;;;;;;;5027338;28;20048;-60
2023/09/07 08:33:35;;;;;;;2.00;1.33;;;;;;;;;;5027828;28;20100;-60
2023/09/07 08:36:01;;;;;;;2.17;1.85;;;;;;;;;;5027542;28;20041;-59
2023/09/07 08:38:27;;;;;;;2.15;1.92;;;;;;;;;;5027534;28;20104;-59
2023/09/07 08:40:57;;;;;;;2.30;2.10;;;;;;;;;;5028100;28;20449;-59
2023/09/07 08:43:24;;;;;;;4.07;2.38;;;;;;;;;;5026496;28;20037;-59
2023/09/07 08:45:59;;;;;;;1.90;1.80;;;;;;;;;;5026549;28;20083;-59
2023/09/07 08:48:26;;;;;;;3.15;2.33;;;;;;;;;;5019660;28;20043;-59
2023/09/07 08:50:52;;;;;;;3.20;2.42;;;;;;;;;;5022738;28;20042;-60
2023/09/07 08:53:22;;;;;;;3.40;2.67;;;;;;;;;;5024814;28;20056;-59
2023/09/07 08:55:48;;;;;;;2.05;1.95;;;;;;;;;;5021873;28;20097;-59
2023/09/07 08:58:14;;;;;;;2.38;2.17;;;;;;;;;;5026635;28;20065;-59
2023/09/07 09:00:43;;;;;;;2.53;2.33;;;;;;;;;;5028231;28;20037;-60
2023/09/07 09:03:09;;;;;;;2.33;2.13;;;;;;;;;;5025579;28;20152;-60
2023/09/07 09:05:36;;;;;;;2.33;2.13;;;;;;;;;;5028271;28;20037;-59
2023/09/07 09:08:04;;;;;;;1.90;1.77;;;;;;;;;;5028721;28;20048;-59
2023/09/07 09:10:30;;;;;;;2.67;2.20;;;;;;;;;;5027602;28;20033;-60
2023/09/07 09:12:56;;;;;;;2.08;1.88;;;;;;;;;;5028341;28;20883;-60
2023/09/07 09:15:23;;;;;;;3.05;1.95;;;;;;;;;;5028065;28;20096;-60
2023/09/07 09:17:49;;;;;;;2.00;1.90;;;;;;;;;;5025587;28;20029;-59
2023/09/07 09:20:22;;;;;;;2.55;2.35;;;;;;;;;;5027262;28;20079;-60
2023/09/07 09:22:49;;;;;;;1.90;1.73;;;;;;;;;;5024602;28;20037;-60
2023/09/07 09:25:15;;;;;;;1.50;1.40;;;;;;;;;;5019541;28;20038;-59
2023/09/07 09:27:41;;;;;;;1.80;1.70;;;;;;;;;;5023506;28;20045;-59
2023/09/07 09:30:08;;;;;;;2.08;1.90;;;;;;;;;;5027651;28;20091;-60
2023/09/07 09:32:34;;;;;;;2.55;2.35;;;;;;;;;;5026798;28;20498;-59
2023/09/07 09:35:05;;;;;;;2.13;1.75;;;;;;;;;;5027204;28;20045;-60
2023/09/07 09:37:31;;;;;;;3.67;2.15;;;;;;;;;;5018263;28;20709;-59
2023/09/07 09:39:59;;;;;;;2.85;2.50;;;;;;;;;;5014938;28;20033;-59
2023/09/07 09:42:25;;;;;;;2.10;2.00;;;;;;;;;;5015103;28;20045;-59
2023/09/07 09:44:53;;;;;;;1.70;1.60;;;;;;;;;;5017306;28;20045;-59
2023/09/07 09:47:19;;;;;;;1.73;1.63;;;;;;;;;;5017253;28;20076;-60
2023/09/07 09:49:46;;;;;;;1.88;1.77;;;;;;;;;;5018107;28;20052;-59
2023/09/07 09:52:12;;;;;;;2.17;2.00;;;;;;;;;;5015994;28;20046;-60
2023/09/07 09:54:38;;;;;;;1.95;1.80;;;;;;;;;;5015070;28;20048;-59
2023/09/07 09:57:05;;;;;;;2.17;1.98;;;;;;;;;;5018023;28;20037;-59
2023/09/07 09:59:31;;;;;;;1.92;1.83;;;;;;;;;;5018640;28;20072;-60
2023/09/07 10:01:57;;;;;;;2.10;2.00;;;;;;;;;;5018764;28;20106;-60
2023/09/07 10:04:24;;;;;;;3.03;2.00;;;;;;;;;;5015965;28;20402;-59
2023/09/07 10:06:51;;;;;;;4.07;2.42;;;;;;;;;;5015327;28;20512;-59
2023/09/07 10:09:19;;;;;;;2.55;2.08;;;;;;;;;;5018287;28;20088;-60
2023/09/07 10:11:51;;;;;;;2.42;2.22;;;;;;;;;;5024614;28;20616;-60
2023/09/07 10:14:17;;;;;;;2.83;2.47;;;;;;;;;;5022989;28;20474;-60
2023/09/07 10:16:43;;;;;;;2.40;2.20;;;;;;;;;;5025580;28;20049;-59
2023/09/07 10:19:16;;;;;;;2.40;2.20;;;;;;;;;;5022660;28;20123;-60
2023/09/07 10:21:43;;;;;;;2.47;2.28;;;;;;;;;;5019527;28;20443;-59
2023/09/07 10:24:09;;;;;;;2.40;2.20;;;;;;;;;;5023556;28;20520;-59
2023/09/07 10:26:35;;;;;;;2.13;1.92;;;;;;;;;;5026434;28;20593;-60
2023/09/07 10:29:03;;;;;;;2.30;2.20;;;;;;;;;;5026306;28;20100;-60
2023/09/07 10:31:30;;;;;;;2.38;2.17;;;;;;;;;;5024448;28;20155;-60
2023/09/07 10:33:56;;;;;;;2.10;2.00;;;;;;;;;;5024724;28;20092;-60
2023/09/07 10:36:23;;;;;;;2.30;2.10;;;;;;;;;;5026118;28;20129;-59
2023/09/07 10:38:52;;;;;;;1.98;1.77;;;;;;;;;;5027943;28;20037;-59
2023/09/07 10:41:19;;;;;;;2.60;2.40;;;;;;;;;;5027586;28;20099;-59
2023/09/07 10:43:48;;;;;;;2.40;2.20;;;;;;;;;;5023851;28;20493;-59
2023/09/07 10:46:15;;;;;;;3.80;2.50;;;;;;;;;;5024488;28;20391;-59
2023/09/07 10:48:41;;;;;;;2.83;2.22;;;;;;;;;;5024085;28;20041;-59
2023/09/07 10:51:07;;;;;;;2.60;2.40;;;;;;;;;;5025705;28;20139;-60
2023/09/07 10:53:33;;;;;;;3.05;2.80;;;;;;;;;;5025615;28;20084;-59
2023/09/07 10:56:02;;;;;;;2.47;2.28;;;;;;;;;;5025727;28;20029;-60
2023/09/07 10:58:30;;;;;;;2.38;2.17;;;;;;;;;;5018301;28;20048;-60
2023/09/07 11:00:56;;;;;;;2.72;2.53;;;;;;;;;;5021455;28;20175;-60
2023/09/07 11:03:23;;;;;;;2.35;2.15;;;;;;;;;;5016775;28;20033;-60
2023/09/07 11:05:49;;;;;;;2.33;1.83;;;;;;;;;;5023968;28;20041;-60
2023/09/07 11:08:15;;;;;;;2.22;2.03;;;;;;;;;;5025921;28;20038;-60
2023/09/07 11:10:42;;;;;;;2.63;2.42;;;;;;;;;;5024476;28;20045;-60
2023/09/07 11:13:08;;;;;;;2.30;2.10;;;;;;;;;;5025956;28;20049;-60
2023/09/07 11:15:35;;;;;;;2.00;1.90;;;;;;;;;;5025785;28;20045;-60
2023/09/07 11:18:06;;;;;;;2.97;2.38;;;;;;;;;;5025347;28;20707;-60
2023/09/07 11:20:32;;;;;;;2.42;2.25;;;;;;;;;;5026247;28;20037;-60
2023/09/07 11:23:00;;;;;;;3.13;2.47;;;;;;;;;;5026288;28;20045;-60
2023/09/07 11:25:26;;;;;;;2.40;2.20;;;;;;;;;;5023965;28;20034;-60
2023/09/07 11:27:57;;;;;;;2.80;2.60;;;;;;;;;;5023270;28;20049;-60
2023/09/07 11:30:24;;;;;;;2.88;2.60;;;;;;;;;;5024380;28;20049;-60
2023/09/07 11:32:50;;;;;;;2.60;2.40;;;;;;;;;;5024350;28;20053;-59
2023/09/07 11:35:16;;;;;;;2.72;2.53;;;;;;;;;;5025007;28;20045;-60
2023/09/07 11:37:42;;;;;;;2.35;2.15;;;;;;;;;;5016672;28;20046;-60
2023/09/07 11:40:12;;;;;;;1.77;1.67;;;;;;;;;;5022898;28;20052;-60
2023/09/07 11:42:38;;;;;;;2.40;2.20;;;;;;;;;;5021509;28;20493;-60
2023/09/07 11:45:06;;;;;;;2.55;2.35;;;;;;;;;;5024569;28;20033;-60
2023/09/07 11:47:34;;;;;;;3.85;2.53;;;;;;;;;;5022741;28;20045;-60
2023/09/07 11:50:00;;;;;;;2.55;2.35;;;;;;;;;;5023719;28;20061;-60
2023/09/07 11:52:26;;;;;;;2.97;2.33;;;;;;;;;;5023225;28;20138;-60
2023/09/07 11:54:52;;;;;;;3.50;2.60;;;;;;;;;;5022907;28;20034;-60
2023/09/07 11:57:18;;;;;;;2.25;2.10;;;;;;;;;;5023962;28;20049;-60
2023/09/07 11:59:44;;;;;;;2.35;2.15;;;;;;;;;;5023351;28;20048;-60
2023/09/07 12:02:14;;;;;;;2.65;2.20;;;;;;;;;;5023470;28;20046;-59
2023/09/07 12:04:40;;;;;;;1.83;1.73;;;;;;;;;;5021586;28;20037;-60
2023/09/07 12:07:06;;;;;;;2.80;2.60;;;;;;;;;;5018992;28;20563;-59
2023/09/07 12:09:32;;;;;;;2.67;2.47;;;;;;;;;;5022155;28;20033;-60
2023/09/07 12:11:58;;;;;;;2.40;2.20;;;;;;;;;;5023342;28;20507;-60
2023/09/07 12:14:24;;;;;;;3.17;2.22;;;;;;;;;;5020851;28;20041;-59
2023/09/07 12:16:50;;;;;;;2.83;2.60;;;;;;;;;;5015381;28;20030;-60
2023/09/07 12:19:17;;;;;;;2.65;2.45;;;;;;;;;;5025269;28;20139;-62
2023/09/07 12:21:42;;;;;;;4.05;3.15;;;;;;;;;;5024565;28;20397;-60
2023/09/07 12:24:09;;;;;;;2.55;2.35;;;;;;;;;;5025279;28;20048;-60
2023/09/07 12:26:35;;;;;;;2.60;2.40;;;;;;;;;;5024828;28;20168;-60
2023/09/07 12:29:01;;;;;;;2.05;1.95;;;;;;;;;;5021890;28;20033;-60
2023/09/07 12:31:27;;;;;;;4.05;1.98;;;;;;;;;;5021229;28;20543;-60
2023/09/07 12:33:53;;;;;;;2.10;1.98;;;;;;;;;;5023446;28;20333;-60
2023/09/07 12:36:21;;;;;;;2.58;2.35;;;;;;;;;;5018110;28;20046;-60
2023/09/07 12:38:47;;;;;;;2.60;2.40;;;;;;;;;;5022370;28;20045;-60
2023/09/07 12:41:13;;;;;;;3.50;2.60;;;;;;;;;;5022604;28;20049;-60
2023/09/07 12:43:39;;;;;;;3.88;2.53;;;;;;;;;;5026954;28;20049;-60
2023/09/07 12:46:05;;;;;;;2.60;2.40;;;;;;;;;;5025054;28;20109;-60
2023/09/07 12:48:31;;;;;;;2.35;2.10;;;;;;;;;;5025551;28;20111;-60
2023/09/07 12:50:57;;;;;;;2.97;2.70;;;;;;;;;;5026680;28;20050;-60
2023/09/07 12:53:26;;;;;;;2.78;2.58;;;;;;;;;;5026915;28;20535;-60
2023/09/07 12:55:53;;;;;;;3.88;2.30;;;;;;;;;;5023381;28;20053;-60
2023/09/07 12:58:20;;;;;;;2.17;2.00;;;;;;;;;;5024257;28;20048;-60
2023/09/07 13:00:47;;;;;;;1.80;1.70;;;;;;;;;;5025457;28;20041;-60
2023/09/07 13:03:14;;;;;;;2.03;1.92;;;;;;;;;;5023359;28;20049;-60
2023/09/07 13:05:40;;;;;;;2.83;2.38;;;;;;;;;;5026071;28;20037;-60
2023/09/07 13:08:06;;;;;;;2.45;2.10;;;;;;;;;;5027424;28;20033;-60
2023/09/07 13:10:33;;;;;;;2.42;2.22;;;;;;;;;;5027409;28;20488;-61
2023/09/07 13:12:59;;;;;;;3.60;2.05;;;;;;;;;;5027563;28;20498;-61
2023/09/07 13:15:25;;;;;;;2.15;2.03;;;;;;;;;;5027889;28;20468;-60
2023/09/07 13:17:52;;;;;;;2.90;2.70;;;;;;;;;;5026908;28;20134;-61
2023/09/07 13:20:19;;;;;;;2.70;2.50;;;;;;;;;;5027506;28;20513;-60
2023/09/07 13:22:48;;;;;;;4.30;2.50;;;;;;;;;;5026497;28;20069;-60
2023/09/07 13:25:14;;;;;;;3.03;2.55;;;;;;;;;;5026357;28;20045;-61
2023/09/07 13:27:40;;;;;;;2.63;2.40;;;;;;;;;;5027402;28;20064;-61
2023/09/07 13:30:11;;;;;;;2.90;2.63;;;;;;;;;;5026814;28;20052;-61
2023/09/07 13:32:38;;;;;;;3.08;2.78;;;;;;;;;;5026163;28;20137;-61
2023/09/07 13:35:04;;;;;;;2.80;2.60;;;;;;;;;;5028055;28;20056;-60
2023/09/07 13:37:30;;;;;;;2.70;2.53;;;;;;;;;;5025075;28;20132;-60
2023/09/07 13:39:56;;;;;;;2.20;2.10;;;;;;;;;;5027582;28;20575;-60
2023/09/07 13:42:22;;;;;;;5.00;2.45;;;;;;;;;;5027932;28;20099;-60
2023/09/07 13:44:49;;;;;;;2.85;2.20;;;;;;;;;;5027226;28;20045;-60
2023/09/07 13:47:15;;;;;;;3.10;2.00;;;;;;;;;;5023879;28;20054;-60
2023/09/07 13:49:41;;;;;;;2.17;1.98;;;;;;;;;;5027408;28;20048;-60
2023/09/07 13:52:07;;;;;;;2.20;2.10;;;;;;;;;;5027063;28;20033;-60
2023/09/07 13:54:33;;;;;;;4.90;2.42;;;;;;;;;;5028280;28;20065;-60
2023/09/07 13:56:59;;;;;;;2.80;2.60;;;;;;;;;;5027348;28;20075;-60
2023/09/07 13:59:28;;;;;;;2.70;2.50;;;;;;;;;;5025900;28;20060;-60
2023/09/07 14:01:54;;;;;;;2.80;2.60;;;;;;;;;;5026830;28;20558;-60
2023/09/07 14:04:20;;;;;;;2.90;2.70;;;;;;;;;;5027071;28;20124;-60
2023/09/07 14:06:46;;;;;;;2.92;2.47;;;;;;;;;;5026416;28;20065;-59
2023/09/07 14:09:13;;;;;;;4.15;2.85;;;;;;;;;;5025615;28;20175;-60
2023/09/07 14:11:40;;;;;;;2.75;2.55;;;;;;;;;;5026513;28;20119;-60
2023/09/07 14:14:06;;;;;;;2.78;2.20;;;;;;;;;;5025883;28;20482;-60
2023/09/07 14:16:33;;;;;;;2.60;2.40;;;;;;;;;;5018816;28;20498;-60
2023/09/07 14:18:59;;;;;;;2.88;2.67;;;;;;;;;;5027460;28;20594;-60
2023/09/07 14:21:25;;;;;;;2.65;1.70;;;;;;;;;;5025405;28;20041;-60
2023/09/07 14:23:51;;;;;;;2.28;2.10;;;;;;;;;;5027188;28;20452;-60
2023/09/07 14:26:17;;;;;;;2.90;2.53;;;;;;;;;;5027202;28;20045;-60
2023/09/07 14:28:43;;;;;;;2.95;2.70;;;;;;;;;;5025613;28;20041;-60
2023/09/07 14:31:09;;;;;;;2.63;2.42;;;;;;;;;;5026856;28;20041;-60
2023/09/07 14:33:41;;;;;;;2.65;1.98;;;;;;;;;;5026671;28;20037;-60
2023/09/07 14:36:07;;;;;;;;;;;;;;;;;;5026759;28;20068;-60
2023/09/07 14:38:39;;;;;;;3.28;2.55;;;;;;;;;;5026161;28;20262;-60